LFPO/ORY METAR and TAF weather

Enter ICAO airport designator
Station Type Date Time Source
LFPO METAR 2021/03/06 02:00 UTC NOAA

LFPO 060200Z 05010KT CAVOK 01/M05 Q1029 NOSIG


Station Type Date Time Source
LFPO Decoded METAR 2021/03/06 02:00 UTC NOAA

Paris-Orly, France (LFPO) 48-44N 002-24E 96M
Mar 05, 2021 - 09:00 PM EST / 2021.03.06 0200 UTC
Wind: from the NE (050 degrees) at 12 MPH (10 KT):0
Visibility: greater than 7 mile(s):0
Temperature: 33 F (1 C)
Windchill: 24 F (-4 C):1
Dew Point: 23 F (-5 C)
Relative Humidity: 64%
Pressure (altimeter): 30.39 in. Hg (1029 hPa)
ob: LFPO 060200Z 05010KT CAVOK 01/M05 Q1029 NOSIG
cycle: 2

Station Type Date Time Source
LFPO TAF 2021/03/05 18:21 UTC NOAA

TAF LFPO 051700Z 0518/0624 04012KT CAVOK

Example: see airport list